sensor_id;sensor_type;location;lat;lon;timestamp;P1;durP1;ratioP1;P2;durP2;ratioP2
65037;SDS011;51605;47.040;15.294;2022-07-10T00:01:31;0.98;;;0.70;;
65037;SDS011;51605;47.040;15.294;2022-07-10T00:03:56;0.75;;;0.75;;
65037;SDS011;51605;47.040;15.294;2022-07-10T00:06:22;0.80;;;0.80;;
65037;SDS011;51605;47.040;15.294;2022-07-10T00:08:48;0.77;;;0.77;;
65037;SDS011;51605;47.040;15.294;2022-07-10T00:11:13;1.03;;;0.80;;
65037;SDS011;51605;47.040;15.294;2022-07-10T00:13:39;0.93;;;0.82;;
65037;SDS011;51605;47.040;15.294;2022-07-10T00:16:04;0.77;;;0.77;;
65037;SDS011;51605;47.040;15.294;2022-07-10T00:18:31;0.93;;;0.80;;
65037;SDS011;51605;47.040;15.294;2022-07-10T00:20:56;1.37;;;0.73;;
65037;SDS011;51605;47.040;15.294;2022-07-10T00:23:22;0.98;;;0.80;;
65037;SDS011;51605;47.040;15.294;2022-07-10T00:25:48;1.10;;;0.80;;
65037;SDS011;51605;47.040;15.294;2022-07-10T00:28:13;1.10;;;0.90;;
65037;SDS011;51605;47.040;15.294;2022-07-10T00:30:39;1.67;;;0.88;;
65037;SDS011;51605;47.040;15.294;2022-07-10T00:33:05;1.17;;;0.90;;
65037;SDS011;51605;47.040;15.294;2022-07-10T00:35:30;1.03;;;0.83;;
65037;SDS011;51605;47.040;15.294;2022-07-10T00:37:56;0.97;;;0.80;;
65037;SDS011;51605;47.040;15.294;2022-07-10T00:40:22;1.10;;;0.90;;
65037;SDS011;51605;47.040;15.294;2022-07-10T00:42:47;1.08;;;0.80;;
65037;SDS011;51605;47.040;15.294;2022-07-10T00:45:13;1.42;;;0.95;;
65037;SDS011;51605;47.040;15.294;2022-07-10T00:47:39;1.42;;;0.80;;
65037;SDS011;51605;47.040;15.294;2022-07-10T00:50:05;0.90;;;0.80;;
65037;SDS011;51605;47.040;15.294;2022-07-10T00:55:00;1.02;;;0.90;;
65037;SDS011;51605;47.040;15.294;2022-07-10T00:57:27;2.25;;;0.88;;
65037;SDS011;51605;47.040;15.294;2022-07-10T00:59:53;1.43;;;0.93;;
65037;SDS011;51605;47.040;15.294;2022-07-10T01:02:19;0.87;;;0.87;;
65037;SDS011;51605;47.040;15.294;2022-07-10T01:04:45;0.90;;;0.80;;
65037;SDS011;51605;47.040;15.294;2022-07-10T01:07:11;1.15;;;0.80;;
65037;SDS011;51605;47.040;15.294;2022-07-10T01:09:36;1.50;;;0.80;;
65037;SDS011;51605;47.040;15.294;2022-07-10T01:12:02;0.80;;;0.70;;
65037;SDS011;51605;47.040;15.294;2022-07-10T01:14:29;1.27;;;0.90;;
65037;SDS011;51605;47.040;15.294;2022-07-10T01:16:59;1.30;;;0.95;;
65037;SDS011;51605;47.040;15.294;2022-07-10T01:19:25;0.80;;;0.80;;
65037;SDS011;51605;47.040;15.294;2022-07-10T01:21:50;1.08;;;0.82;;
65037;SDS011;51605;47.040;15.294;2022-07-10T01:24:16;1.33;;;0.82;;
65037;SDS011;51605;47.040;15.294;2022-07-10T01:26:42;1.60;;;0.90;;
65037;SDS011;51605;47.040;15.294;2022-07-10T01:29:08;0.70;;;0.70;;
65037;SDS011;51605;47.040;15.294;2022-07-10T01:31:35;1.20;;;0.90;;
65037;SDS011;51605;47.040;15.294;2022-07-10T01:34:01;1.25;;;0.75;;
65037;SDS011;51605;47.040;15.294;2022-07-10T01:36:29;1.20;;;0.90;;
65037;SDS011;51605;47.040;15.294;2022-07-10T01:38:56;2.33;;;0.80;;
65037;SDS011;51605;47.040;15.294;2022-07-10T01:41:23;1.08;;;0.93;;
65037;SDS011;51605;47.040;15.294;2022-07-10T01:43:49;0.63;;;0.60;;
65037;SDS011;51605;47.040;15.294;2022-07-10T01:46:16;1.10;;;0.82;;
65037;SDS011;51605;47.040;15.294;2022-07-10T01:48:42;1.00;;;0.90;;
65037;SDS011;51605;47.040;15.294;2022-07-10T01:51:08;0.80;;;0.80;;
65037;SDS011;51605;47.040;15.294;2022-07-10T01:53:35;1.10;;;0.80;;
65037;SDS011;51605;47.040;15.294;2022-07-10T01:56:03;0.93;;;0.83;;
65037;SDS011;51605;47.040;15.294;2022-07-10T01:58:30;1.23;;;0.88;;
65037;SDS011;51605;47.040;15.294;2022-07-10T02:00:56;1.08;;;0.90;;
65037;SDS011;51605;47.040;15.294;2022-07-10T02:03:22;0.77;;;0.77;;
65037;SDS011;51605;47.040;15.294;2022-07-10T02:06:06;1.10;;;0.80;;
65037;SDS011;51605;47.040;15.294;2022-07-10T02:08:32;1.60;;;0.80;;
65037;SDS011;51605;47.040;15.294;2022-07-10T02:10:58;0.98;;;0.70;;
65037;SDS011;51605;47.040;15.294;2022-07-10T02:13:24;2.15;;;0.95;;
65037;SDS011;51605;47.040;15.294;2022-07-10T02:15:52;0.98;;;0.80;;
65037;SDS011;51605;47.040;15.294;2022-07-10T02:18:19;1.70;;;0.80;;
65037;SDS011;51605;47.040;15.294;2022-07-10T02:20:45;0.83;;;0.73;;
65037;SDS011;51605;47.040;15.294;2022-07-10T02:23:11;0.87;;;0.83;;
65037;SDS011;51605;47.040;15.294;2022-07-10T02:25:37;0.70;;;0.70;;
65037;SDS011;51605;47.040;15.294;2022-07-10T02:28:03;0.90;;;0.77;;
65037;SDS011;51605;47.040;15.294;2022-07-10T02:30:28;0.70;;;0.70;;
65037;SDS011;51605;47.040;15.294;2022-07-10T02:32:54;0.80;;;0.80;;
65037;SDS011;51605;47.040;15.294;2022-07-10T02:35:20;0.70;;;0.70;;
65037;SDS011;51605;47.040;15.294;2022-07-10T02:37:46;0.73;;;0.70;;
65037;SDS011;51605;47.040;15.294;2022-07-10T02:40:11;0.75;;;0.70;;
65037;SDS011;51605;47.040;15.294;2022-07-10T02:42:37;0.82;;;0.80;;
65037;SDS011;51605;47.040;15.294;2022-07-10T02:45:03;1.35;;;0.75;;
65037;SDS011;51605;47.040;15.294;2022-07-10T02:47:29;1.03;;;0.80;;
65037;SDS011;51605;47.040;15.294;2022-07-10T02:49:55;1.77;;;0.87;;
65037;SDS011;51605;47.040;15.294;2022-07-10T02:52:20;1.92;;;0.77;;
65037;SDS011;51605;47.040;15.294;2022-07-10T02:54:46;1.03;;;0.80;;
65037;SDS011;51605;47.040;15.294;2022-07-10T02:57:12;1.08;;;0.68;;
65037;SDS011;51605;47.040;15.294;2022-07-10T02:59:38;0.70;;;0.65;;
65037;SDS011;51605;47.040;15.294;2022-07-10T03:02:04;0.73;;;0.73;;
65037;SDS011;51605;47.040;15.294;2022-07-10T03:04:29;0.80;;;0.80;;
65037;SDS011;51605;47.040;15.294;2022-07-10T03:06:55;0.98;;;0.73;;
65037;SDS011;51605;47.040;15.294;2022-07-10T03:09:21;0.70;;;0.70;;
65037;SDS011;51605;47.040;15.294;2022-07-10T03:11:46;0.82;;;0.77;;
65037;SDS011;51605;47.040;15.294;2022-07-10T03:14:12;1.15;;;0.70;;
65037;SDS011;51605;47.040;15.294;2022-07-10T03:16:37;1.00;;;0.80;;
65037;SDS011;51605;47.040;15.294;2022-07-10T03:19:03;1.15;;;0.80;;
65037;SDS011;51605;47.040;15.294;2022-07-10T03:21:29;0.98;;;0.80;;
65037;SDS011;51605;47.040;15.294;2022-07-10T03:23:57;0.98;;;0.70;;
65037;SDS011;51605;47.040;15.294;2022-07-10T03:26:23;1.17;;;0.73;;
65037;SDS011;51605;47.040;15.294;2022-07-10T03:28:49;0.60;;;0.60;;
65037;SDS011;51605;47.040;15.294;2022-07-10T03:31:14;0.68;;;0.68;;
65037;SDS011;51605;47.040;15.294;2022-07-10T03:33:40;0.60;;;0.60;;
65037;SDS011;51605;47.040;15.294;2022-07-10T03:36:05;0.60;;;0.60;;
65037;SDS011;51605;47.040;15.294;2022-07-10T03:38:32;1.47;;;0.80;;
65037;SDS011;51605;47.040;15.294;2022-07-10T03:40:57;0.70;;;0.70;;
65037;SDS011;51605;47.040;15.294;2022-07-10T03:43:23;0.65;;;0.65;;
65037;SDS011;51605;47.040;15.294;2022-07-10T03:45:49;0.95;;;0.70;;
65037;SDS011;51605;47.040;15.294;2022-07-10T03:48:15;0.87;;;0.70;;
65037;SDS011;51605;47.040;15.294;2022-07-10T03:50:41;0.60;;;0.60;;
65037;SDS011;51605;47.040;15.294;2022-07-10T03:53:07;0.88;;;0.70;;
65037;SDS011;51605;47.040;15.294;2022-07-10T03:55:32;1.02;;;0.70;;
65037;SDS011;51605;47.040;15.294;2022-07-10T03:57:58;1.20;;;0.63;;
65037;SDS011;51605;47.040;15.294;2022-07-10T04:00:27;0.93;;;0.70;;
65037;SDS011;51605;47.040;15.294;2022-07-10T04:03:00;0.70;;;0.60;;
65037;SDS011;51605;47.040;15.294;2022-07-10T04:05:28;0.90;;;0.80;;
65037;SDS011;51605;47.040;15.294;2022-07-10T04:07:54;0.90;;;0.80;;
65037;SDS011;51605;47.040;15.294;2022-07-10T04:10:27;0.60;;;0.60;;
65037;SDS011;51605;47.040;15.294;2022-07-10T04:12:54;1.23;;;0.80;;
65037;SDS011;51605;47.040;15.294;2022-07-10T04:15:20;0.60;;;0.60;;
65037;SDS011;51605;47.040;15.294;2022-07-10T04:17:47;1.02;;;0.70;;
65037;SDS011;51605;47.040;15.294;2022-07-10T04:22:39;0.85;;;0.63;;
65037;SDS011;51605;47.040;15.294;2022-07-10T04:25:05;0.95;;;0.70;;
65037;SDS011;51605;47.040;15.294;2022-07-10T04:27:32;0.82;;;0.70;;
65037;SDS011;51605;47.040;15.294;2022-07-10T04:29:58;0.88;;;0.70;;
65037;SDS011;51605;47.040;15.294;2022-07-10T04:32:24;1.05;;;0.63;;
65037;SDS011;51605;47.040;15.294;2022-07-10T04:34:49;1.10;;;0.87;;
65037;SDS011;51605;47.040;15.294;2022-07-10T04:37:15;0.85;;;0.73;;
65037;SDS011;51605;47.040;15.294;2022-07-10T04:39:41;0.55;;;0.55;;
65037;SDS011;51605;47.040;15.294;2022-07-10T04:42:07;0.70;;;0.70;;
65037;SDS011;51605;47.040;15.294;2022-07-10T04:44:34;1.50;;;0.70;;
65037;SDS011;51605;47.040;15.294;2022-07-10T04:47:01;0.98;;;0.77;;
65037;SDS011;51605;47.040;15.294;2022-07-10T04:49:27;1.20;;;0.60;;
65037;SDS011;51605;47.040;15.294;2022-07-10T04:51:53;0.93;;;0.70;;
65037;SDS011;51605;47.040;15.294;2022-07-10T04:54:19;0.73;;;0.63;;
65037;SDS011;51605;47.040;15.294;2022-07-10T04:56:45;2.28;;;0.80;;
65037;SDS011;51605;47.040;15.294;2022-07-10T04:59:11;0.93;;;0.85;;
65037;SDS011;51605;47.040;15.294;2022-07-10T05:01:36;0.70;;;0.70;;
65037;SDS011;51605;47.040;15.294;2022-07-10T05:04:02;1.33;;;0.93;;
65037;SDS011;51605;47.040;15.294;2022-07-10T05:06:29;0.70;;;0.70;;
65037;SDS011;51605;47.040;15.294;2022-07-10T05:08:55;1.23;;;0.80;;
65037;SDS011;51605;47.040;15.294;2022-07-10T05:11:21;0.95;;;0.80;;
65037;SDS011;51605;47.040;15.294;2022-07-10T05:13:47;0.70;;;0.70;;
65037;SDS011;51605;47.040;15.294;2022-07-10T05:16:16;0.83;;;0.63;;
65037;SDS011;51605;47.040;15.294;2022-07-10T05:18:42;0.77;;;0.77;;
65037;SDS011;51605;47.040;15.294;2022-07-10T05:21:07;1.45;;;0.68;;
65037;SDS011;51605;47.040;15.294;2022-07-10T05:23:34;0.70;;;0.70;;
65037;SDS011;51605;47.040;15.294;2022-07-10T05:26:00;0.60;;;0.60;;
65037;SDS011;51605;47.040;15.294;2022-07-10T05:28:26;0.63;;;0.63;;
65037;SDS011;51605;47.040;15.294;2022-07-10T05:30:51;0.75;;;0.60;;
65037;SDS011;51605;47.040;15.294;2022-07-10T05:33:17;0.83;;;0.73;;
65037;SDS011;51605;47.040;15.294;2022-07-10T05:35:43;0.90;;;0.70;;
65037;SDS011;51605;47.040;15.294;2022-07-10T05:38:09;0.55;;;0.55;;
65037;SDS011;51605;47.040;15.294;2022-07-10T05:40:35;0.63;;;0.60;;
65037;SDS011;51605;47.040;15.294;2022-07-10T05:43:01;0.60;;;0.60;;
65037;SDS011;51605;47.040;15.294;2022-07-10T05:45:27;0.73;;;0.63;;
65037;SDS011;51605;47.040;15.294;2022-07-10T05:47:52;0.60;;;0.60;;
65037;SDS011;51605;47.040;15.294;2022-07-10T05:50:18;0.60;;;0.60;;
65037;SDS011;51605;47.040;15.294;2022-07-10T05:52:44;0.70;;;0.70;;
65037;SDS011;51605;47.040;15.294;2022-07-10T05:55:10;1.30;;;0.80;;
65037;SDS011;51605;47.040;15.294;2022-07-10T05:57:36;0.70;;;0.70;;
65037;SDS011;51605;47.040;15.294;2022-07-10T06:00:03;0.70;;;0.70;;
65037;SDS011;51605;47.040;15.294;2022-07-10T06:02:30;0.60;;;0.60;;
65037;SDS011;51605;47.040;15.294;2022-07-10T06:04:56;0.82;;;0.75;;
65037;SDS011;51605;47.040;15.294;2022-07-10T06:07:21;0.70;;;0.70;;
65037;SDS011;51605;47.040;15.294;2022-07-10T06:09:47;0.87;;;0.80;;
65037;SDS011;51605;47.040;15.294;2022-07-10T06:12:13;0.70;;;0.70;;
65037;SDS011;51605;47.040;15.294;2022-07-10T06:14:40;1.30;;;0.73;;
65037;SDS011;51605;47.040;15.294;2022-07-10T06:17:06;0.70;;;0.70;;
65037;SDS011;51605;47.040;15.294;2022-07-10T06:19:32;0.70;;;0.70;;
65037;SDS011;51605;47.040;15.294;2022-07-10T06:21:57;0.60;;;0.60;;
65037;SDS011;51605;47.040;15.294;2022-07-10T06:24:42;0.70;;;0.60;;
65037;SDS011;51605;47.040;15.294;2022-07-10T06:27:08;0.60;;;0.60;;
65037;SDS011;51605;47.040;15.294;2022-07-10T06:29:33;0.60;;;0.60;;
65037;SDS011;51605;47.040;15.294;2022-07-10T06:31:59;0.70;;;0.60;;
65037;SDS011;51605;47.040;15.294;2022-07-10T06:34:25;0.70;;;0.60;;
65037;SDS011;51605;47.040;15.294;2022-07-10T06:36:50;0.70;;;0.70;;
65037;SDS011;51605;47.040;15.294;2022-07-10T06:39:16;0.87;;;0.70;;
65037;SDS011;51605;47.040;15.294;2022-07-10T06:41:41;0.75;;;0.75;;
65037;SDS011;51605;47.040;15.294;2022-07-10T06:44:07;0.68;;;0.65;;
65037;SDS011;51605;47.040;15.294;2022-07-10T06:46:33;1.10;;;0.80;;
65037;SDS011;51605;47.040;15.294;2022-07-10T06:48:59;0.70;;;0.70;;
65037;SDS011;51605;47.040;15.294;2022-07-10T06:51:25;0.70;;;0.70;;
65037;SDS011;51605;47.040;15.294;2022-07-10T06:53:51;1.25;;;0.70;;
65037;SDS011;51605;47.040;15.294;2022-07-10T06:56:17;0.77;;;0.70;;
65037;SDS011;51605;47.040;15.294;2022-07-10T06:58:43;1.00;;;0.80;;
65037;SDS011;51605;47.040;15.294;2022-07-10T07:01:09;0.80;;;0.80;;
65037;SDS011;51605;47.040;15.294;2022-07-10T07:03:35;1.42;;;0.70;;
65037;SDS011;51605;47.040;15.294;2022-07-10T07:06:00;0.63;;;0.63;;
65037;SDS011;51605;47.040;15.294;2022-07-10T07:08:29;0.60;;;0.60;;
65037;SDS011;51605;47.040;15.294;2022-07-10T07:10:55;1.25;;;0.70;;
65037;SDS011;51605;47.040;15.294;2022-07-10T07:13:20;0.70;;;0.70;;
65037;SDS011;51605;47.040;15.294;2022-07-10T07:15:46;0.80;;;0.70;;
65037;SDS011;51605;47.040;15.294;2022-07-10T07:18:22;0.60;;;0.60;;
65037;SDS011;51605;47.040;15.294;2022-07-10T07:20:56;0.90;;;0.73;;
65037;SDS011;51605;47.040;15.294;2022-07-10T07:23:41;1.30;;;0.77;;
65037;SDS011;51605;47.040;15.294;2022-07-10T07:26:07;0.90;;;0.80;;
65037;SDS011;51605;47.040;15.294;2022-07-10T07:28:32;0.80;;;0.70;;
65037;SDS011;51605;47.040;15.294;2022-07-10T07:30:58;1.02;;;0.80;;
65037;SDS011;51605;47.040;15.294;2022-07-10T07:33:24;0.70;;;0.70;;
65037;SDS011;51605;47.040;15.294;2022-07-10T07:35:50;0.77;;;0.70;;
65037;SDS011;51605;47.040;15.294;2022-07-10T07:38:16;0.88;;;0.70;;
65037;SDS011;51605;47.040;15.294;2022-07-10T07:40:42;1.58;;;0.70;;
65037;SDS011;51605;47.040;15.294;2022-07-10T07:43:08;0.50;;;0.50;;
65037;SDS011;51605;47.040;15.294;2022-07-10T07:45:34;0.82;;;0.75;;
65037;SDS011;51605;47.040;15.294;2022-07-10T07:48:00;0.73;;;0.63;;
65037;SDS011;51605;47.040;15.294;2022-07-10T07:50:30;0.80;;;0.80;;
65037;SDS011;51605;47.040;15.294;2022-07-10T07:52:57;1.42;;;0.80;;
65037;SDS011;51605;47.040;15.294;2022-07-10T07:55:24;1.90;;;0.70;;
65037;SDS011;51605;47.040;15.294;2022-07-10T07:57:53;2.30;;;0.73;;
65037;SDS011;51605;47.040;15.294;2022-07-10T08:00:20;1.15;;;0.80;;
65037;SDS011;51605;47.040;15.294;2022-07-10T08:02:47;1.35;;;0.80;;
65037;SDS011;51605;47.040;15.294;2022-07-10T08:05:14;1.05;;;0.80;;
65037;SDS011;51605;47.040;15.294;2022-07-10T08:07:41;1.98;;;0.90;;
65037;SDS011;51605;47.040;15.294;2022-07-10T08:10:09;0.90;;;0.80;;
65037;SDS011;51605;47.040;15.294;2022-07-10T08:12:38;1.50;;;0.90;;
65037;SDS011;51605;47.040;15.294;2022-07-10T08:15:05;0.80;;;0.73;;
65037;SDS011;51605;47.040;15.294;2022-07-10T08:17:34;1.65;;;0.98;;
65037;SDS011;51605;47.040;15.294;2022-07-10T08:20:00;0.70;;;0.70;;
65037;SDS011;51605;47.040;15.294;2022-07-10T08:22:26;0.77;;;0.73;;
65037;SDS011;51605;47.040;15.294;2022-07-10T08:24:52;2.92;;;0.80;;
65037;SDS011;51605;47.040;15.294;2022-07-10T08:27:17;8.93;;;1.00;;
65037;SDS011;51605;47.040;15.294;2022-07-10T08:29:43;5.70;;;1.27;;
65037;SDS011;51605;47.040;15.294;2022-07-10T08:32:09;7.70;;;1.52;;
65037;SDS011;51605;47.040;15.294;2022-07-10T08:34:35;11.60;;;1.40;;
65037;SDS011;51605;47.040;15.294;2022-07-10T08:37:02;10.13;;;1.38;;
65037;SDS011;51605;47.040;15.294;2022-07-10T08:39:28;5.22;;;1.30;;
65037;SDS011;51605;47.040;15.294;2022-07-10T08:41:54;11.95;;;1.55;;
65037;SDS011;51605;47.040;15.294;2022-07-10T08:44:20;7.40;;;1.30;;
65037;SDS011;51605;47.040;15.294;2022-07-10T08:46:46;6.03;;;1.30;;
65037;SDS011;51605;47.040;15.294;2022-07-10T08:49:12;8.90;;;1.30;;
65037;SDS011;51605;47.040;15.294;2022-07-10T08:51:41;5.35;;;1.15;;
65037;SDS011;51605;47.040;15.294;2022-07-10T08:54:22;8.27;;;1.20;;
65037;SDS011;51605;47.040;15.294;2022-07-10T08:56:50;5.13;;;1.45;;
65037;SDS011;51605;47.040;15.294;2022-07-10T08:59:16;6.80;;;1.30;;
65037;SDS011;51605;47.040;15.294;2022-07-10T09:01:43;5.13;;;1.38;;
65037;SDS011;51605;47.040;15.294;2022-07-10T09:04:15;5.57;;;1.10;;
65037;SDS011;51605;47.040;15.294;2022-07-10T09:06:45;9.40;;;1.30;;
65037;SDS011;51605;47.040;15.294;2022-07-10T09:09:11;5.65;;;1.15;;
65037;SDS011;51605;47.040;15.294;2022-07-10T09:11:38;14.93;;;1.63;;
65037;SDS011;51605;47.040;15.294;2022-07-10T09:14:05;11.68;;;1.60;;
65037;SDS011;51605;47.040;15.294;2022-07-10T09:16:36;8.82;;;1.85;;
65037;SDS011;51605;47.040;15.294;2022-07-10T09:19:21;17.60;;;2.25;;
65037;SDS011;51605;47.040;15.294;2022-07-10T09:21:51;8.60;;;1.60;;
65037;SDS011;51605;47.040;15.294;2022-07-10T09:24:26;15.90;;;1.60;;
65037;SDS011;51605;47.040;15.294;2022-07-10T09:26:59;9.18;;;1.50;;
65037;SDS011;51605;47.040;15.294;2022-07-10T09:29:28;13.27;;;2.33;;
65037;SDS011;51605;47.040;15.294;2022-07-10T09:31:55;10.57;;;2.03;;
65037;SDS011;51605;47.040;15.294;2022-07-10T09:34:34;8.93;;;1.92;;
65037;SDS011;51605;47.040;15.294;2022-07-10T09:37:28;8.55;;;2.00;;
65037;SDS011;51605;47.040;15.294;2022-07-10T09:40:01;11.45;;;2.00;;
65037;SDS011;51605;47.040;15.294;2022-07-10T09:47:57;4.50;;;1.80;;
65037;SDS011;51605;47.040;15.294;2022-07-10T09:50:31;6.38;;;1.98;;
65037;SDS011;51605;47.040;15.294;2022-07-10T09:53:04;6.25;;;1.95;;
65037;SDS011;51605;47.040;15.294;2022-07-10T09:55:35;7.65;;;1.92;;
65037;SDS011;51605;47.040;15.294;2022-07-10T09:58:04;5.95;;;1.55;;
65037;SDS011;51605;47.040;15.294;2022-07-10T10:00:32;7.22;;;1.90;;
65037;SDS011;51605;47.040;15.294;2022-07-10T10:03:00;6.57;;;1.98;;
65037;SDS011;51605;47.040;15.294;2022-07-10T10:08:12;6.03;;;1.83;;
65037;SDS011;51605;47.040;15.294;2022-07-10T10:10:43;5.80;;;1.70;;
65037;SDS011;51605;47.040;15.294;2022-07-10T10:13:17;9.02;;;2.10;;
65037;SDS011;51605;47.040;15.294;2022-07-10T10:15:50;3.80;;;1.60;;
65037;SDS011;51605;47.040;15.294;2022-07-10T10:18:23;3.90;;;1.55;;
65037;SDS011;51605;47.040;15.294;2022-07-10T10:20:51;5.47;;;1.88;;
65037;SDS011;51605;47.040;15.294;2022-07-10T10:23:19;4.40;;;1.48;;
65037;SDS011;51605;47.040;15.294;2022-07-10T10:25:46;5.05;;;1.55;;
65037;SDS011;51605;47.040;15.294;2022-07-10T10:28:13;6.40;;;1.52;;
65037;SDS011;51605;47.040;15.294;2022-07-10T10:30:42;5.53;;;1.60;;
65037;SDS011;51605;47.040;15.294;2022-07-10T10:35:56;3.78;;;1.48;;
65037;SDS011;51605;47.040;15.294;2022-07-10T10:38:22;4.23;;;1.50;;
65037;SDS011;51605;47.040;15.294;2022-07-10T10:40:48;3.80;;;1.47;;
65037;SDS011;51605;47.040;15.294;2022-07-10T10:45:45;3.30;;;1.60;;
65037;SDS011;51605;47.040;15.294;2022-07-10T10:48:15;3.83;;;1.60;;
65037;SDS011;51605;47.040;15.294;2022-07-10T10:50:51;3.95;;;1.75;;
65037;SDS011;51605;47.040;15.294;2022-07-10T10:53:25;3.30;;;1.30;;
65037;SDS011;51605;47.040;15.294;2022-07-10T10:58:44;4.88;;;1.50;;
65037;SDS011;51605;47.040;15.294;2022-07-10T11:06:38;3.20;;;1.48;;
65037;SDS011;51605;47.040;15.294;2022-07-10T11:09:24;4.65;;;1.40;;
65037;SDS011;51605;47.040;15.294;2022-07-10T11:12:03;3.40;;;1.23;;
65037;SDS011;51605;47.040;15.294;2022-07-10T11:14:34;2.90;;;1.30;;
65037;SDS011;51605;47.040;15.294;2022-07-10T11:17:01;2.65;;;1.30;;
65037;SDS011;51605;47.040;15.294;2022-07-10T11:19:28;3.40;;;1.35;;
65037;SDS011;51605;47.040;15.294;2022-07-10T11:25:00;2.13;;;1.20;;
65037;SDS011;51605;47.040;15.294;2022-07-10T11:30:06;3.78;;;1.30;;
65037;SDS011;51605;47.040;15.294;2022-07-10T11:32:32;2.05;;;1.13;;
65037;SDS011;51605;47.040;15.294;2022-07-10T11:34:59;2.50;;;1.20;;
65037;SDS011;51605;47.040;15.294;2022-07-10T11:37:25;1.95;;;1.20;;
65037;SDS011;51605;47.040;15.294;2022-07-10T11:40:07;3.15;;;1.25;;
65037;SDS011;51605;47.040;15.294;2022-07-10T11:42:47;2.22;;;1.10;;
65037;SDS011;51605;47.040;15.294;2022-07-10T11:45:21;2.75;;;1.20;;
65037;SDS011;51605;47.040;15.294;2022-07-10T11:47:48;2.95;;;1.15;;
65037;SDS011;51605;47.040;15.294;2022-07-10T11:50:14;1.95;;;1.27;;
65037;SDS011;51605;47.040;15.294;2022-07-10T11:52:40;2.85;;;1.23;;
65037;SDS011;51605;47.040;15.294;2022-07-10T11:55:18;3.72;;;1.35;;
65037;SDS011;51605;47.040;15.294;2022-07-10T11:57:46;2.95;;;1.10;;
65037;SDS011;51605;47.040;15.294;2022-07-10T12:02:50;2.55;;;1.23;;
65037;SDS011;51605;47.040;15.294;2022-07-10T12:07:55;2.47;;;1.10;;
65037;SDS011;51605;47.040;15.294;2022-07-10T12:10:21;2.25;;;1.20;;
65037;SDS011;51605;47.040;15.294;2022-07-10T12:12:51;3.05;;;1.20;;
65037;SDS011;51605;47.040;15.294;2022-07-10T12:15:38;2.42;;;1.38;;
65037;SDS011;51605;47.040;15.294;2022-07-10T12:18:06;3.80;;;1.35;;
65037;SDS011;51605;47.040;15.294;2022-07-10T12:20:33;1.90;;;1.10;;
65037;SDS011;51605;47.040;15.294;2022-07-10T12:23:00;2.40;;;1.25;;
65037;SDS011;51605;47.040;15.294;2022-07-10T12:25:26;4.20;;;1.33;;
65037;SDS011;51605;47.040;15.294;2022-07-10T12:27:55;2.10;;;1.10;;
65037;SDS011;51605;47.040;15.294;2022-07-10T12:30:23;2.38;;;1.30;;
65037;SDS011;51605;47.040;15.294;2022-07-10T12:33:09;2.10;;;1.00;;
65037;SDS011;51605;47.040;15.294;2022-07-10T12:35:46;2.95;;;1.30;;
65037;SDS011;51605;47.040;15.294;2022-07-10T12:38:26;2.10;;;1.30;;
65037;SDS011;51605;47.040;15.294;2022-07-10T12:41:11;3.15;;;1.30;;
65037;SDS011;51605;47.040;15.294;2022-07-10T12:43:39;2.33;;;1.20;;
65037;SDS011;51605;47.040;15.294;2022-07-10T12:48:36;2.22;;;1.20;;
65037;SDS011;51605;47.040;15.294;2022-07-10T12:51:22;1.10;;;0.98;;
65037;SDS011;51605;47.040;15.294;2022-07-10T12:53:55;2.33;;;1.20;;
65037;SDS011;51605;47.040;15.294;2022-07-10T12:58:59;2.45;;;1.20;;
65037;SDS011;51605;47.040;15.294;2022-07-10T13:01:27;1.75;;;1.20;;
65037;SDS011;51605;47.040;15.294;2022-07-10T13:03:57;2.30;;;1.10;;
65037;SDS011;51605;47.040;15.294;2022-07-10T13:08:54;2.72;;;1.27;;
65037;SDS011;51605;47.040;15.294;2022-07-10T13:11:19;1.95;;;0.95;;
65037;SDS011;51605;47.040;15.294;2022-07-10T13:13:46;1.10;;;1.00;;
65037;SDS011;51605;47.040;15.294;2022-07-10T13:16:12;2.22;;;1.20;;
65037;SDS011;51605;47.040;15.294;2022-07-10T13:18:38;2.47;;;1.35;;
65037;SDS011;51605;47.040;15.294;2022-07-10T13:21:08;2.10;;;1.27;;
65037;SDS011;51605;47.040;15.294;2022-07-10T13:23:35;2.58;;;1.30;;
65037;SDS011;51605;47.040;15.294;2022-07-10T13:26:02;1.47;;;1.07;;
65037;SDS011;51605;47.040;15.294;2022-07-10T13:28:29;1.50;;;1.10;;
65037;SDS011;51605;47.040;15.294;2022-07-10T13:30:55;1.13;;;1.00;;
65037;SDS011;51605;47.040;15.294;2022-07-10T13:33:21;1.38;;;0.93;;
65037;SDS011;51605;47.040;15.294;2022-07-10T13:35:48;1.52;;;1.02;;
65037;SDS011;51605;47.040;15.294;2022-07-10T13:38:14;1.48;;;1.10;;
65037;SDS011;51605;47.040;15.294;2022-07-10T13:40:42;1.25;;;1.00;;
65037;SDS011;51605;47.040;15.294;2022-07-10T13:43:09;1.08;;;0.98;;
65037;SDS011;51605;47.040;15.294;2022-07-10T13:45:35;2.67;;;1.10;;
65037;SDS011;51605;47.040;15.294;2022-07-10T13:48:11;1.35;;;1.02;;
65037;SDS011;51605;47.040;15.294;2022-07-10T13:50:40;4.55;;;1.20;;
65037;SDS011;51605;47.040;15.294;2022-07-10T13:53:07;2.22;;;1.10;;
65037;SDS011;51605;47.040;15.294;2022-07-10T13:55:33;1.77;;;1.10;;
65037;SDS011;51605;47.040;15.294;2022-07-10T13:57:59;2.95;;;1.40;;
65037;SDS011;51605;47.040;15.294;2022-07-10T14:00:26;1.55;;;1.10;;
65037;SDS011;51605;47.040;15.294;2022-07-10T14:02:51;1.58;;;1.10;;
65037;SDS011;51605;47.040;15.294;2022-07-10T14:05:20;1.55;;;1.20;;
65037;SDS011;51605;47.040;15.294;2022-07-10T14:07:46;2.07;;;1.30;;
65037;SDS011;51605;47.040;15.294;2022-07-10T14:10:12;2.28;;;1.00;;
65037;SDS011;51605;47.040;15.294;2022-07-10T14:12:38;1.93;;;1.07;;
65037;SDS011;51605;47.040;15.294;2022-07-10T14:15:03;1.95;;;1.13;;
65037;SDS011;51605;47.040;15.294;2022-07-10T14:17:29;1.20;;;0.93;;
65037;SDS011;51605;47.040;15.294;2022-07-10T14:19:55;1.10;;;0.90;;
65037;SDS011;51605;47.040;15.294;2022-07-10T14:22:20;2.47;;;1.00;;
65037;SDS011;51605;47.040;15.294;2022-07-10T14:24:47;1.50;;;1.05;;
65037;SDS011;51605;47.040;15.294;2022-07-10T14:27:13;1.55;;;1.08;;
65037;SDS011;51605;47.040;15.294;2022-07-10T14:29:39;1.20;;;1.00;;
65037;SDS011;51605;47.040;15.294;2022-07-10T14:32:05;1.30;;;1.10;;
65037;SDS011;51605;47.040;15.294;2022-07-10T14:34:31;2.28;;;1.15;;
65037;SDS011;51605;47.040;15.294;2022-07-10T14:36:56;1.33;;;1.10;;
65037;SDS011;51605;47.040;15.294;2022-07-10T14:39:23;1.90;;;1.20;;
65037;SDS011;51605;47.040;15.294;2022-07-10T14:41:49;1.73;;;1.20;;
65037;SDS011;51605;47.040;15.294;2022-07-10T14:44:15;1.93;;;1.10;;
65037;SDS011;51605;47.040;15.294;2022-07-10T14:46:40;1.67;;;1.10;;
65037;SDS011;51605;47.040;15.294;2022-07-10T14:49:07;1.70;;;0.93;;
65037;SDS011;51605;47.040;15.294;2022-07-10T14:51:34;2.30;;;1.00;;
65037;SDS011;51605;47.040;15.294;2022-07-10T14:54:00;1.67;;;1.00;;
65037;SDS011;51605;47.040;15.294;2022-07-10T14:56:26;1.20;;;1.00;;
65037;SDS011;51605;47.040;15.294;2022-07-10T14:58:52;1.33;;;1.00;;
65037;SDS011;51605;47.040;15.294;2022-07-10T15:01:18;1.33;;;1.10;;
65037;SDS011;51605;47.040;15.294;2022-07-10T15:03:43;1.15;;;1.00;;
65037;SDS011;51605;47.040;15.294;2022-07-10T15:06:09;1.10;;;0.90;;
65037;SDS011;51605;47.040;15.294;2022-07-10T15:08:35;1.00;;;0.90;;
65037;SDS011;51605;47.040;15.294;2022-07-10T15:11:01;1.75;;;1.00;;
65037;SDS011;51605;47.040;15.294;2022-07-10T15:13:27;1.35;;;1.25;;
65037;SDS011;51605;47.040;15.294;2022-07-10T15:15:53;2.17;;;1.30;;
65037;SDS011;51605;47.040;15.294;2022-07-10T15:18:19;1.42;;;1.10;;
65037;SDS011;51605;47.040;15.294;2022-07-10T15:20:46;1.45;;;1.05;;